Time;durP1;ratioP1;P1;durP2;ratioP2;P2;SDS_P1;SDS_P2;PMS_P1;PMS_P2;Temp;Humidity;BMP_temperature;BMP_pressure;BME280_temperature;BME280_humidity;BME280_pressure;Samples;Min_cycle;Max_cycle;Signal;HPM_P1;HPM_P2
2022/08/16 00:01:18;;;;;;;34.80;12.05;;;;;;;;;;1638924;86;21228;-80
2022/08/16 00:03:44;;;;;;;24.95;11.40;;;;;;;;;;1639207;86;21239;-80
2022/08/16 00:06:11;;;;;;;29.57;11.55;;;;;;;;;;1639189;86;21554;-81
2022/08/16 00:08:37;;;;;;;30.75;11.15;;;;;;;;;;1638805;86;21101;-81
2022/08/16 00:11:07;;;;;;;28.57;10.95;;;;;;;;;;1638937;86;21602;-81
2022/08/16 00:13:34;;;;;;;27.77;10.85;;;;;;;;;;1638928;87;21113;-81
2022/08/16 00:15:59;;;;;;;26.10;11.22;;;;;;;;;;1682525;81;21409;-80
2022/08/16 00:18:25;;;;;;;23.98;11.45;;;;;;;;;;1728870;81;21150;-81
2022/08/16 00:20:51;;;;;;;27.62;11.00;;;;;;;;;;1756371;81;20890;-80
2022/08/16 00:23:17;;;;;;;22.62;11.60;;;;;;;;;;1728494;81;20980;-80
2022/08/16 00:25:43;;;;;;;27.15;10.82;;;;;;;;;;1728827;81;20901;-81
2022/08/16 00:28:09;;;;;;;27.50;10.98;;;;;;;;;;1756231;81;20981;-80
2022/08/16 00:30:35;;;;;;;25.70;11.55;;;;;;;;;;1756488;81;21113;-81
2022/08/16 00:33:01;;;;;;;27.20;12.00;;;;;;;;;;1756561;81;20960;-80
2022/08/16 00:35:30;;;;;;;23.77;10.98;;;;;;;;;;1756869;81;20905;-81
2022/08/16 00:37:56;;;;;;;21.70;11.55;;;;;;;;;;1756407;81;21509;-81
2022/08/16 00:40:25;;;;;;;27.58;11.95;;;;;;;;;;1756744;81;20980;-81
2022/08/16 00:42:51;;;;;;;23.18;10.95;;;;;;;;;;1752797;81;21178;-81
2022/08/16 00:45:36;;;;;;;21.73;10.32;;;;;;;;;;1756706;81;20941;-81
2022/08/16 00:48:04;;;;;;;24.12;11.53;;;;;;;;;;1756538;81;20953;-80
2022/08/16 00:50:32;;;;;;;28.35;11.93;;;;;;;;;;1756621;81;21520;-81
2022/08/16 00:52:58;;;;;;;27.32;11.48;;;;;;;;;;1756396;81;21551;-81
2022/08/16 00:55:25;;;;;;;24.00;11.20;;;;;;;;;;1756919;81;21052;-80
2022/08/16 00:57:53;;;;;;;26.05;11.57;;;;;;;;;;1733174;81;21080;-81
2022/08/16 01:00:19;;;;;;;25.97;11.83;;;;;;;;;;1733411;82;21040;-81
2022/08/16 01:02:45;;;;;;;20.40;10.93;;;;;;;;;;1733248;82;21005;-80
2022/08/16 01:05:11;;;;;;;20.97;10.88;;;;;;;;;;1733383;81;21053;-80
2022/08/16 01:07:37;;;;;;;28.55;11.55;;;;;;;;;;1733254;82;21101;-81
2022/08/16 01:10:04;;;;;;;30.20;12.03;;;;;;;;;;1733306;82;21097;-80
2022/08/16 01:12:30;;;;;;;24.02;11.63;;;;;;;;;;1732973;82;21083;-80
2022/08/16 01:14:57;;;;;;;24.27;11.20;;;;;;;;;;1733267;82;20969;-80
2022/08/16 01:17:24;;;;;;;27.50;11.90;;;;;;;;;;1703896;82;21600;-81
2022/08/16 01:19:53;;;;;;;28.95;11.40;;;;;;;;;;1733342;82;21110;-81
2022/08/16 01:22:39;;;;;;;34.35;11.33;;;;;;;;;;1674647;85;21498;-80
2022/08/16 01:25:08;;;;;;;26.87;12.43;;;;;;;;;;1675038;84;21013;-80
2022/08/16 01:27:43;;;;;;;30.77;11.63;;;;;;;;;;1674749;84;21083;-80
2022/08/16 01:30:18;;;;;;;27.98;11.90;;;;;;;;;;1619688;88;21075;-80
2022/08/16 01:32:44;;;;;;;29.12;11.57;;;;;;;;;;1619551;88;21098;-80
2022/08/16 01:35:22;;;;;;;30.02;11.18;;;;;;;;;;1619572;88;20968;-80
2022/08/16 01:37:50;;;;;;;27.10;11.95;;;;;;;;;;1619425;88;21115;-80
2022/08/16 01:40:19;;;;;;;29.45;11.22;;;;;;;;;;1619496;88;21016;-80
2022/08/16 01:42:46;;;;;;;25.37;11.83;;;;;;;;;;1619690;88;21134;-80
2022/08/16 01:45:12;;;;;;;21.35;11.18;;;;;;;;;;1619804;88;21086;-80
2022/08/16 01:47:39;;;;;;;27.80;11.70;;;;;;;;;;1619646;88;21044;-81
2022/08/16 01:50:06;;;;;;;33.98;11.93;;;;;;;;;;1619891;88;21155;-80
2022/08/16 01:52:33;;;;;;;25.82;11.25;;;;;;;;;;1619405;88;21644;-80
2022/08/16 01:54:58;;;;;;;24.95;12.50;;;;;;;;;;1619456;88;21130;-80
2022/08/16 01:57:25;;;;;;;33.25;12.05;;;;;;;;;;1630677;86;21052;-80
2022/08/16 01:59:51;;;;;;;27.55;12.10;;;;;;;;;;1635353;87;21142;-80
2022/08/16 02:02:17;;;;;;;26.42;10.93;;;;;;;;;;1635343;87;20838;-80
2022/08/16 02:04:43;;;;;;;22.98;11.25;;;;;;;;;;1635378;86;21649;-80
2022/08/16 02:07:09;;;;;;;23.07;11.35;;;;;;;;;;1635395;86;20889;-80
2022/08/16 02:09:37;;;;;;;25.82;11.88;;;;;;;;;;1631391;86;21991;-80
2022/08/16 02:12:05;;;;;;;31.82;11.57;;;;;;;;;;1635465;86;21428;-80
2022/08/16 02:14:33;;;;;;;25.95;11.55;;;;;;;;;;1635317;86;21032;-81
2022/08/16 02:17:01;;;;;;;22.02;10.03;;;;;;;;;;1635683;86;21075;-81
2022/08/16 02:19:29;;;;;;;23.90;10.43;;;;;;;;;;1662961;84;21068;-81
2022/08/16 02:21:55;;;;;;;30.77;11.93;;;;;;;;;;1680473;83;21145;-80
2022/08/16 02:24:21;;;;;;;30.35;11.60;;;;;;;;;;1680878;84;21618;-81
2022/08/16 02:26:47;;;;;;;21.48;10.58;;;;;;;;;;1722586;82;21056;-80
2022/08/16 02:29:14;;;;;;;28.00;10.88;;;;;;;;;;1751374;81;21449;-80
2022/08/16 02:31:40;;;;;;;27.22;11.97;;;;;;;;;;1751195;82;21044;-80
2022/08/16 02:34:07;;;;;;;24.65;10.48;;;;;;;;;;1721927;82;21090;-80
2022/08/16 02:36:33;;;;;;;20.37;9.45;;;;;;;;;;1751490;82;21492;-80
2022/08/16 02:39:00;;;;;;;22.62;9.53;;;;;;;;;;1751359;82;21001;-80
2022/08/16 02:41:25;;;;;;;20.20;9.53;;;;;;;;;;1751661;82;21049;-80
2022/08/16 02:43:51;;;;;;;22.58;9.35;;;;;;;;;;1751524;82;20979;-80
2022/08/16 02:46:17;;;;;;;25.72;9.60;;;;;;;;;;1751484;81;21003;-80
2022/08/16 02:48:43;;;;;;;20.17;9.25;;;;;;;;;;1751034;81;20901;-80
2022/08/16 02:51:10;;;;;;;22.85;9.48;;;;;;;;;;1751093;80;20945;-81
2022/08/16 02:53:39;;;;;;;20.52;10.95;;;;;;;;;;1751328;82;21628;-80
2022/08/16 02:56:05;;;;;;;18.48;9.50;;;;;;;;;;1747662;80;21008;-79
2022/08/16 02:58:32;;;;;;;25.85;10.23;;;;;;;;;;1756652;81;21098;-79
2022/08/16 03:01:01;;;;;;;29.27;10.53;;;;;;;;;;1756285;81;21449;-80
2022/08/16 03:03:27;;;;;;;21.23;9.78;;;;;;;;;;1728766;81;21623;-80
2022/08/16 03:05:54;;;;;;;29.25;9.90;;;;;;;;;;1756504;81;21055;-80
2022/08/16 03:08:21;;;;;;;30.62;9.70;;;;;;;;;;1756385;80;21039;-81
2022/08/16 03:10:48;;;;;;;24.18;10.35;;;;;;;;;;1756724;81;22002;-80
2022/08/16 03:13:16;;;;;;;22.40;8.85;;;;;;;;;;1756332;81;20997;-80
2022/08/16 03:15:43;;;;;;;19.48;9.05;;;;;;;;;;1756495;80;20973;-80
2022/08/16 03:18:09;;;;;;;21.35;9.68;;;;;;;;;;1756481;81;21006;-80
2022/08/16 03:20:35;;;;;;;21.95;10.28;;;;;;;;;;1756776;81;20922;-80
2022/08/16 03:23:02;;;;;;;29.87;12.03;;;;;;;;;;1756361;81;22899;-80
2022/08/16 03:25:29;;;;;;;29.45;11.83;;;;;;;;;;1756666;81;20990;-80
2022/08/16 03:27:55;;;;;;;27.75;11.00;;;;;;;;;;1756707;81;21004;-80
2022/08/16 03:30:24;;;;;;;25.08;11.55;;;;;;;;;;1756690;80;20862;-80
2022/08/16 03:32:50;;;;;;;25.35;12.47;;;;;;;;;;1756437;81;21621;-80
2022/08/16 03:35:17;;;;;;;20.68;11.63;;;;;;;;;;1756871;81;21083;-80
2022/08/16 03:37:45;;;;;;;28.90;12.00;;;;;;;;;;1756582;81;21036;-80
2022/08/16 03:40:13;;;;;;;26.85;12.15;;;;;;;;;;1693703;83;21048;-80
2022/08/16 03:42:38;;;;;;;27.93;12.58;;;;;;;;;;1693976;83;21060;-80
2022/08/16 03:45:06;;;;;;;33.55;12.55;;;;;;;;;;1694292;83;20964;-80
2022/08/16 03:47:32;;;;;;;29.75;12.58;;;;;;;;;;1694171;83;22155;-80
2022/08/16 03:49:57;;;;;;;24.57;12.68;;;;;;;;;;1693952;83;20889;-80
2022/08/16 03:52:24;;;;;;;27.95;12.23;;;;;;;;;;1693921;83;20899;-81
2022/08/16 03:54:51;;;;;;;37.17;17.25;;;;;;;;;;1698071;83;21159;-77
2022/08/16 03:57:16;;;;;;;30.15;14.58;;;;;;;;;;1699990;83;21015;-81
2022/08/16 04:02:11;;;;;;;40.12;16.32;;;;;;;;;;1640313;87;21138;-81
2022/08/16 04:04:37;;;;;;;31.45;16.10;;;;;;;;;;1640561;87;21063;-81
2022/08/16 04:07:05;;;;;;;37.35;15.85;;;;;;;;;;1640411;87;21599;-81
2022/08/16 04:09:32;;;;;;;34.78;16.90;;;;;;;;;;1640799;87;21607;-81
2022/08/16 04:11:57;;;;;;;33.48;16.80;;;;;;;;;;1640799;87;21084;-81
2022/08/16 04:14:23;;;;;;;37.70;16.40;;;;;;;;;;1640635;87;20994;-82
2022/08/16 04:16:49;;;;;;;30.68;14.53;;;;;;;;;;1640814;87;20885;-83
2022/08/16 04:19:15;;;;;;;35.40;13.95;;;;;;;;;;1640685;87;20945;-81
2022/08/16 04:21:41;;;;;;;33.98;14.80;;;;;;;;;;1640968;87;21134;-80
2022/08/16 04:24:06;;;;;;;30.50;14.35;;;;;;;;;;1640630;87;21052;-81
2022/08/16 04:26:32;;;;;;;35.58;15.23;;;;;;;;;;1618595;87;20948;-81
2022/08/16 04:28:59;;;;;;;29.82;12.78;;;;;;;;;;1640489;87;20864;-80
2022/08/16 04:31:25;;;;;;;31.33;13.28;;;;;;;;;;1640946;87;21291;-83
2022/08/16 04:33:52;;;;;;;30.88;13.50;;;;;;;;;;1641183;87;20822;-81
2022/08/16 04:36:20;;;;;;;31.73;14.45;;;;;;;;;;1645527;86;22179;-79
2022/08/16 04:38:48;;;;;;;30.57;13.20;;;;;;;;;;1669215;85;20996;-82
2022/08/16 04:41:13;;;;;;;30.02;14.23;;;;;;;;;;1603086;89;21170;-82
2022/08/16 04:43:39;;;;;;;28.67;14.95;;;;;;;;;;1602862;89;20924;-81
2022/08/16 04:46:05;;;;;;;28.67;14.87;;;;;;;;;;1602977;89;21550;-81
2022/08/16 04:48:30;;;;;;;36.88;14.50;;;;;;;;;;1599493;89;21708;-81
2022/08/16 04:50:56;;;;;;;29.98;13.43;;;;;;;;;;1603076;89;20935;-82
2022/08/16 04:53:22;;;;;;;32.95;14.35;;;;;;;;;;1602931;89;20911;-82
2022/08/16 04:55:48;;;;;;;29.85;14.60;;;;;;;;;;1614319;87;21626;-80
2022/08/16 04:58:13;;;;;;;36.95;15.25;;;;;;;;;;1633932;86;20988;-82
2022/08/16 05:00:41;;;;;;;30.90;14.60;;;;;;;;;;1665803;84;21041;-81
2022/08/16 05:03:09;;;;;;;38.35;18.50;;;;;;;;;;1685076;85;21033;-81
2022/08/16 05:05:37;;;;;;;30.23;15.53;;;;;;;;;;1685718;85;20966;-82
2022/08/16 05:08:04;;;;;;;39.33;20.92;;;;;;;;;;1685509;85;21057;-82
2022/08/16 05:10:30;;;;;;;39.60;19.75;;;;;;;;;;1685737;85;21058;-82
2022/08/16 05:12:57;;;;;;;36.35;17.75;;;;;;;;;;1685232;85;21031;-83
2022/08/16 05:15:23;;;;;;;35.68;17.48;;;;;;;;;;1685406;85;21077;-81
2022/08/16 05:17:49;;;;;;;42.30;17.42;;;;;;;;;;1685397;85;21043;-80
2022/08/16 05:20:29;;;;;;;68.78;21.12;;;;;;;;;;1685833;85;20841;-87
2022/08/16 05:22:56;;;;;;;38.15;16.97;;;;;;;;;;1685022;84;21149;-86
2022/08/16 05:25:21;;;;;;;42.03;16.90;;;;;;;;;;1685025;85;21713;-86
2022/08/16 05:27:47;;;;;;;36.10;16.10;;;;;;;;;;1685683;85;21000;-86
2022/08/16 05:30:14;;;;;;;36.38;16.45;;;;;;;;;;1662537;85;20892;-85
2022/08/16 05:32:41;;;;;;;30.50;16.90;;;;;;;;;;1661927;85;38949;-86
2022/08/16 05:35:09;;;;;;;30.10;16.60;;;;;;;;;;1685163;85;21134;-87
2022/08/16 05:37:37;;;;;;;37.48;16.00;;;;;;;;;;1685498;85;21285;-85
2022/08/16 05:40:05;;;;;;;29.27;15.90;;;;;;;;;;1685509;85;21015;-86
2022/08/16 05:42:31;;;;;;;30.62;16.17;;;;;;;;;;1685513;85;21061;-84
2022/08/16 05:44:57;;;;;;;34.55;16.87;;;;;;;;;;1732787;81;20943;-87
2022/08/16 05:47:23;;;;;;;38.67;16.32;;;;;;;;;;1756289;81;21088;-87
2022/08/16 05:49:49;;;;;;;29.18;15.58;;;;;;;;;;1756318;81;21012;-86
2022/08/16 05:52:15;;;;;;;38.58;16.62;;;;;;;;;;1756220;81;20856;-86
2022/08/16 05:54:42;;;;;;;39.98;17.25;;;;;;;;;;1756521;81;20916;-87
2022/08/16 05:57:08;;;;;;;35.13;17.15;;;;;;;;;;1760024;80;21071;-86
2022/08/16 05:59:34;;;;;;;37.70;16.20;;;;;;;;;;1778891;80;21523;-86
2022/08/16 06:02:00;;;;;;;35.28;16.17;;;;;;;;;;1779091;80;21066;-86
2022/08/16 06:04:26;;;;;;;37.78;15.72;;;;;;;;;;1779173;80;21636;-86
2022/08/16 06:06:52;;;;;;;32.28;14.90;;;;;;;;;;1778529;80;20848;-86
2022/08/16 06:09:18;;;;;;;33.85;16.35;;;;;;;;;;1779109;80;20829;-87
2022/08/16 06:11:44;;;;;;;35.45;17.05;;;;;;;;;;1778835;80;20893;-86
2022/08/16 06:14:10;;;;;;;32.45;16.00;;;;;;;;;;1747604;80;21192;-84
2022/08/16 06:16:36;;;;;;;36.33;15.35;;;;;;;;;;1779231;80;21033;-85
2022/08/16 06:19:02;;;;;;;31.68;16.02;;;;;;;;;;1779257;80;20896;-85
2022/08/16 06:21:29;;;;;;;38.95;16.42;;;;;;;;;;1779242;80;22126;-85
2022/08/16 06:23:55;;;;;;;38.65;16.27;;;;;;;;;;1779025;80;21030;-86
2022/08/16 06:26:21;;;;;;;36.20;16.00;;;;;;;;;;1779340;80;21280;-86
2022/08/16 06:28:47;;;;;;;32.25;14.25;;;;;;;;;;1779292;80;21007;-87
2022/08/16 06:31:14;;;;;;;32.83;15.48;;;;;;;;;;1779333;80;21481;-85
2022/08/16 06:33:41;;;;;;;31.37;15.83;;;;;;;;;;1779338;80;21005;-85
2022/08/16 06:36:07;;;;;;;40.20;16.00;;;;;;;;;;1779152;80;21032;-87
2022/08/16 06:38:34;;;;;;;32.85;15.75;;;;;;;;;;1779036;80;22013;-88
2022/08/16 06:41:05;;;;;;;39.48;16.20;;;;;;;;;;1779384;80;21098;-88
2022/08/16 06:43:31;;;;;;;41.10;17.25;;;;;;;;;;1779371;80;21018;-89
2022/08/16 06:45:57;;;;;;;33.50;15.85;;;;;;;;;;1779285;80;20988;-89
2022/08/16 06:48:22;;;;;;;31.52;16.12;;;;;;;;;;1779255;80;20991;-88
2022/08/16 06:50:51;;;;;;;31.23;15.98;;;;;;;;;;1779297;80;21721;-89
2022/08/16 06:53:16;;;;;;;32.33;15.50;;;;;;;;;;1779033;80;21500;-88
2022/08/16 06:55:43;;;;;;;33.05;17.00;;;;;;;;;;1779429;80;21527;-88
2022/08/16 06:58:09;;;;;;;32.10;17.07;;;;;;;;;;1779000;80;21058;-87
2022/08/16 07:00:37;;;;;;;38.67;16.90;;;;;;;;;;1779423;80;21012;-88
2022/08/16 07:03:03;;;;;;;30.60;16.37;;;;;;;;;;1779026;80;21096;-89
2022/08/16 07:05:30;;;;;;;32.08;17.25;;;;;;;;;;1779145;80;21507;-89
2022/08/16 07:07:56;;;;;;;36.28;17.07;;;;;;;;;;1778961;80;21038;-88
2022/08/16 07:10:24;;;;;;;37.75;17.00;;;;;;;;;;1759744;80;21111;-89
2022/08/16 07:12:50;;;;;;;32.08;15.90;;;;;;;;;;1748040;81;21067;-90
2022/08/16 07:15:17;;;;;;;32.35;16.27;;;;;;;;;;1763300;80;21079;-89
2022/08/16 07:17:44;;;;;;;31.77;15.40;;;;;;;;;;1763134;80;21478;-89
2022/08/16 07:20:11;;;;;;;31.80;16.30;;;;;;;;;;1760542;81;21059;-90
2022/08/16 07:22:40;;;;;;;33.83;16.25;;;;;;;;;;1761863;80;21040;-90
2022/08/16 07:25:11;;;;;;;35.28;17.02;;;;;;;;;;1745409;81;21206;-90
2022/08/16 07:27:38;;;;;;;37.08;15.80;;;;;;;;;;1722625;81;21903;-86
2022/08/16 07:30:06;;;;;;;35.00;15.75;;;;;;;;;;1720831;83;21137;-88
2022/08/16 07:32:32;;;;;;;33.02;16.67;;;;;;;;;;1720540;82;21227;-87
2022/08/16 07:35:00;;;;;;;34.15;15.85;;;;;;;;;;1721176;83;21082;-88
2022/08/16 07:37:26;;;;;;;34.23;15.15;;;;;;;;;;1717944;81;21065;-90
2022/08/16 07:39:52;;;;;;;29.37;14.68;;;;;;;;;;1745864;81;21945;-88
2022/08/16 07:42:18;;;;;;;31.62;14.73;;;;;;;;;;1728123;81;21085;-87
2022/08/16 07:44:44;;;;;;;32.30;15.20;;;;;;;;;;1720983;82;20897;-88
2022/08/16 07:47:10;;;;;;;34.38;15.13;;;;;;;;;;1721023;83;20946;-89
2022/08/16 07:49:36;;;;;;;34.92;13.98;;;;;;;;;;1721038;82;21103;-89
2022/08/16 07:52:02;;;;;;;28.05;13.45;;;;;;;;;;1720856;83;21793;-88
2022/08/16 07:54:27;;;;;;;32.15;14.33;;;;;;;;;;1721048;83;21050;-90
2022/08/16 07:56:53;;;;;;;29.72;14.93;;;;;;;;;;1721093;83;21711;-88
2022/08/16 07:59:19;;;;;;;31.45;14.15;;;;;;;;;;1714818;83;20872;-88
2022/08/16 08:01:45;;;;;;;30.65;13.95;;;;;;;;;;1714091;83;21074;-88
2022/08/16 08:04:12;;;;;;;31.20;13.55;;;;;;;;;;1713708;83;21048;-89
2022/08/16 08:06:40;;;;;;;33.15;14.40;;;;;;;;;;1713898;83;21121;-88
2022/08/16 08:09:06;;;;;;;29.15;14.98;;;;;;;;;;1713813;83;21056;-89
2022/08/16 08:11:31;;;;;;;27.85;13.65;;;;;;;;;;1714159;83;20867;-90
2022/08/16 08:13:59;;;;;;;30.12;14.70;;;;;;;;;;1713941;83;20867;-89
2022/08/16 08:16:26;;;;;;;27.15;13.90;;;;;;;;;;1714119;83;21063;-90
2022/08/16 08:18:53;;;;;;;32.70;14.07;;;;;;;;;;1714103;83;21136;-89
2022/08/16 08:21:21;;;;;;;39.63;14.63;;;;;;;;;;1719752;82;21067;-90
2022/08/16 08:23:47;;;;;;;26.82;13.95;;;;;;;;;;1712934;82;21465;-88
2022/08/16 08:26:13;;;;;;;32.05;13.13;;;;;;;;;;1740053;82;20983;-88
2022/08/16 08:28:40;;;;;;;28.40;13.85;;;;;;;;;;1739603;82;21865;-88
2022/08/16 08:31:06;;;;;;;25.60;12.35;;;;;;;;;;1739958;81;21091;-86
2022/08/16 08:33:32;;;;;;;22.42;12.37;;;;;;;;;;1740228;81;21076;-85
2022/08/16 08:36:00;;;;;;;34.73;13.20;;;;;;;;;;1741153;82;21035;-85
2022/08/16 08:38:26;;;;;;;32.13;14.00;;;;;;;;;;1739556;82;21038;-85
2022/08/16 08:40:53;;;;;;;31.75;12.73;;;;;;;;;;1739449;82;21175;-85
2022/08/16 08:43:18;;;;;;;24.75;12.58;;;;;;;;;;1739690;82;21033;-86
2022/08/16 08:45:44;;;;;;;30.20;12.30;;;;;;;;;;1739902;82;20995;-85
2022/08/16 08:48:10;;;;;;;26.25;12.63;;;;;;;;;;1739757;82;20958;-86
2022/08/16 08:50:37;;;;;;;29.98;13.40;;;;;;;;;;1739807;81;20912;-85
2022/08/16 08:53:03;;;;;;;30.97;13.58;;;;;;;;;;1739511;82;21152;-87
2022/08/16 08:55:30;;;;;;;33.10;12.82;;;;;;;;;;1739624;82;20880;-87
2022/08/16 08:57:56;;;;;;;26.55;12.45;;;;;;;;;;1741109;81;21038;-86
2022/08/16 09:00:24;;;;;;;25.95;12.43;;;;;;;;;;1754760;81;21527;-86
2022/08/16 09:02:50;;;;;;;25.95;13.43;;;;;;;;;;1754859;81;21478;-87
2022/08/16 09:05:18;;;;;;;30.65;13.53;;;;;;;;;;1754869;81;21076;-86
2022/08/16 09:07:45;;;;;;;32.03;13.80;;;;;;;;;;1754587;81;21026;-86
2022/08/16 09:10:11;;;;;;;32.45;14.03;;;;;;;;;;1754789;81;21046;-87
2022/08/16 09:12:37;;;;;;;26.12;14.40;;;;;;;;;;1754918;81;20863;-87
2022/08/16 09:15:05;;;;;;;36.15;14.05;;;;;;;;;;1754781;81;21166;-86
2022/08/16 09:17:31;;;;;;;31.80;13.48;;;;;;;;;;1754889;81;21973;-88
2022/08/16 09:19:57;;;;;;;24.65;12.60;;;;;;;;;;1754754;81;20855;-87
2022/08/16 09:22:25;;;;;;;31.25;13.35;;;;;;;;;;1754745;81;20895;-87
2022/08/16 09:24:50;;;;;;;26.30;12.70;;;;;;;;;;1754636;81;21065;-86
2022/08/16 09:27:16;;;;;;;30.60;12.88;;;;;;;;;;1727153;81;20926;-86
2022/08/16 09:29:43;;;;;;;29.10;12.82;;;;;;;;;;1755124;81;21968;-87
2022/08/16 09:32:09;;;;;;;32.83;13.03;;;;;;;;;;1754592;81;21037;-86
2022/08/16 09:34:36;;;;;;;30.02;12.50;;;;;;;;;;1755004;81;20982;-86
2022/08/16 09:37:01;;;;;;;27.93;12.10;;;;;;;;;;1754935;81;21014;-87
2022/08/16 09:39:28;;;;;;;24.15;11.75;;;;;;;;;;1750165;81;21084;-86
2022/08/16 09:41:55;;;;;;;27.07;11.80;;;;;;;;;;1754771;81;21072;-86
2022/08/16 09:44:25;;;;;;;21.82;10.48;;;;;;;;;;1754397;81;21025;-85
2022/08/16 09:46:52;;;;;;;23.02;10.93;;;;;;;;;;1755155;81;21459;-85
2022/08/16 09:49:18;;;;;;;15.93;9.18;;;;;;;;;;1754916;81;21010;-86
2022/08/16 09:51:44;;;;;;;25.68;9.63;;;;;;;;;;1754924;81;20962;-85
2022/08/16 09:54:11;;;;;;;28.92;8.43;;;;;;;;;;1754677;81;21085;-84
2022/08/16 09:56:39;;;;;;;24.40;8.98;;;;;;;;;;1754435;81;21034;-84
2022/08/16 09:59:07;;;;;;;25.60;8.88;;;;;;;;;;1750718;81;21041;-84
2022/08/16 10:01:35;;;;;;;16.42;8.75;;;;;;;;;;1746681;82;21018;-83
2022/08/16 10:06:29;;;;;;;26.62;9.03;;;;;;;;;;1682042;85;21038;-86
2022/08/16 10:08:55;;;;;;;22.30;8.38;;;;;;;;;;1682291;85;21610;-84
2022/08/16 10:14:16;;;;;;;31.40;9.43;;;;;;;;;;1681657;84;21028;-83
2022/08/16 10:19:14;;;;;;;18.92;7.72;;;;;;;;;;1600457;88;21062;-85
2022/08/16 10:21:40;;;;;;;26.02;7.67;;;;;;;;;;1566240;91;21095;-84
2022/08/16 10:24:07;;;;;;;18.37;6.67;;;;;;;;;;1566442;91;21566;-82
2022/08/16 10:26:39;;;;;;;24.65;6.70;;;;;;;;;;1565871;91;21557;-83
2022/08/16 10:31:36;;;;;;;23.87;6.45;;;;;;;;;;1501337;95;21449;-83
2022/08/16 10:34:02;;;;;;;18.40;5.47;;;;;;;;;;1501617;95;21180;-84
2022/08/16 10:36:37;;;;;;;23.27;6.42;;;;;;;;;;1511865;92;21026;-84
2022/08/16 10:38:59;;;;;;;14.25;5.50;;;;;;;;;;1522869;91;21077;-87
2022/08/16 10:41:25;;;;;;;16.97;5.50;;;;;;;;;;1523837;93;21124;-85
2022/08/16 10:43:58;;;;;;;18.50;5.55;;;;;;;;;;1524179;92;21210;-85
2022/08/16 10:46:25;;;;;;;16.67;5.03;;;;;;;;;;1541668;92;21152;-84
2022/08/16 10:48:51;;;;;;;16.17;4.97;;;;;;;;;;1540813;92;21123;-83
2022/08/16 10:51:23;;;;;;;17.73;4.95;;;;;;;;;;1539490;92;20949;-86
2022/08/16 10:53:50;;;;;;;21.70;5.28;;;;;;;;;;1538981;91;21111;-85
2022/08/16 10:56:16;;;;;;;23.10;5.40;;;;;;;;;;1538852;93;21179;-84
2022/08/16 10:58:50;;;;;;;17.32;5.05;;;;;;;;;;1538560;90;21541;-85
2022/08/16 11:01:24;;;;;;;17.55;4.87;;;;;;;;;;1474336;97;21067;-86
2022/08/16 11:03:48;;;;;;;18.60;4.72;;;;;;;;;;1440767;98;21577;-85
2022/08/16 11:06:27;;;;;;;19.45;4.92;;;;;;;;;;1457422;98;21185;-85
2022/08/16 11:08:58;;;;;;;24.90;5.00;;;;;;;;;;1438889;99;21662;-85
2022/08/16 11:11:26;;;;;;;19.57;5.53;;;;;;;;;;1421420;100;21189;-86
2022/08/16 11:13:54;;;;;;;13.85;4.83;;;;;;;;;;1408966;100;21206;-84
2022/08/16 11:16:21;;;;;;;18.62;5.72;;;;;;;;;;1404114;99;21367;-84
2022/08/16 11:18:47;;;;;;;20.75;5.55;;;;;;;;;;1392025;102;21168;-86
2022/08/16 11:21:16;;;;;;;17.98;6.60;;;;;;;;;;1388293;103;21161;-86
2022/08/16 11:23:58;;;;;;;19.50;5.60;;;;;;;;;;1356041;105;21186;-85
2022/08/16 11:26:32;;;;;;;17.07;5.72;;;;;;;;;;1355292;103;21157;-86
2022/08/16 11:29:16;;;;;;;24.77;5.62;;;;;;;;;;1319729;107;21171;-85
2022/08/16 11:34:18;;;;;;;27.10;6.70;;;;;;;;;;1311320;109;21702;-84
2022/08/16 11:36:47;;;;;;;22.55;6.10;;;;;;;;;;1311907;109;21400;-82
2022/08/16 11:39:16;;;;;;;20.10;6.75;;;;;;;;;;1298543;109;21209;-85
2022/08/16 11:44:18;;;;;;;20.60;5.92;;;;;;;;;;1316029;108;21141;-85
2022/08/16 11:46:43;;;;;;;19.82;5.85;;;;;;;;;;1317098;107;21929;-83
2022/08/16 11:49:10;;;;;;;18.25;6.15;;;;;;;;;;1316986;108;21005;-84
2022/08/16 11:51:38;;;;;;;12.85;5.62;;;;;;;;;;1321478;107;21139;-85
2022/08/16 11:54:09;;;;;;;17.92;6.22;;;;;;;;;;1321624;107;21161;-83
2022/08/16 11:56:37;;;;;;;18.37;6.10;;;;;;;;;;1321170;107;21276;-83
2022/08/16 11:59:28;;;;;;;14.00;6.17;;;;;;;;;;1301495;106;21753;-83
2022/08/16 12:01:37;;;;;;;22.17;6.33;;;;;;;;;;1317803;107;21110;-87
2022/08/16 12:04:03;;;;;;;18.42;6.20;;;;;;;;;;1272299;112;21217;-85
2022/08/16 12:09:53;;;;;;;;;;;;;;;;;;;;;
2022/08/16 12:12:16;;;;;;;22.07;6.22;;;;;;;;;;1291249;108;21219;-87
2022/08/16 12:14:50;;;;;;;15.95;5.75;;;;;;;;;;1286084;111;21167;-84
2022/08/16 12:17:17;;;;;;;18.30;6.17;;;;;;;;;;1313539;107;21161;-84
2022/08/16 12:22:15;;;;;;;15.20;5.67;;;;;;;;;;1349860;105;21228;-83
2022/08/16 12:24:43;;;;;;;17.80;5.78;;;;;;;;;;1343487;106;21415;-84
2022/08/16 12:27:10;;;;;;;12.80;5.08;;;;;;;;;;1344288;106;21204;-84
2022/08/16 12:29:39;;;;;;;14.25;4.50;;;;;;;;;;1344748;106;21258;-84
2022/08/16 12:32:05;;;;;;;14.90;5.10;;;;;;;;;;1326868;106;21202;-85
2022/08/16 12:34:31;;;;;;;14.15;4.45;;;;;;;;;;1315317;107;21213;-85
2022/08/16 12:37:01;;;;;;;14.00;4.50;;;;;;;;;;1310492;109;21247;-85
2022/08/16 12:39:30;;;;;;;13.35;4.10;;;;;;;;;;1326784;106;21192;-84
2022/08/16 12:41:57;;;;;;;10.88;4.33;;;;;;;;;;1338634;105;21196;-82
2022/08/16 12:44:25;;;;;;;12.68;3.85;;;;;;;;;;1346308;106;21125;-84
2022/08/16 12:49:56;;;;;;;9.85;4.28;;;;;;;;;;1373198;102;21170;-83
2022/08/16 12:54:48;;;;;;;11.57;3.87;;;;;;;;;;1393202;103;21236;-85
2022/08/16 12:57:14;;;;;;;10.72;4.37;;;;;;;;;;1387698;102;20966;-89
2022/08/16 12:59:42;;;;;;;11.53;4.50;;;;;;;;;;1404192;102;22247;-85
2022/08/16 13:02:11;;;;;;;10.53;4.55;;;;;;;;;;1380478;102;21695;-86
2022/08/16 13:04:41;;;;;;;12.85;5.42;;;;;;;;;;1356499;103;21216;-88
2022/08/16 13:07:06;;;;;;;11.97;5.22;;;;;;;;;;1302915;106;21274;-86
2022/08/16 13:09:34;;;;;;;8.45;4.42;;;;;;;;;;1338665;105;21320;-86
2022/08/16 13:12:06;;;;;;;14.53;4.55;;;;;;;;;;1342478;105;21409;-86
2022/08/16 13:14:34;;;;;;;13.30;4.30;;;;;;;;;;1355321;105;21179;-85
2022/08/16 13:17:04;;;;;;;10.18;4.58;;;;;;;;;;1360055;105;21164;-89
2022/08/16 13:19:30;;;;;;;27.48;8.18;;;;;;;;;;1378182;103;21195;-89
2022/08/16 13:21:56;;;;;;;25.92;5.83;;;;;;;;;;1388639;103;21155;-88
2022/08/16 13:24:22;;;;;;;10.40;5.45;;;;;;;;;;1400384;101;21775;-89
2022/08/16 13:26:47;;;;;;;15.00;5.70;;;;;;;;;;1416743;100;21237;-87
2022/08/16 13:29:13;;;;;;;21.80;7.00;;;;;;;;;;1436928;99;21050;-92
2022/08/16 13:31:39;;;;;;;13.43;5.53;;;;;;;;;;1461678;98;21141;-88
2022/08/16 13:34:04;;;;;;;17.48;5.37;;;;;;;;;;1461893;98;21055;-88
2022/08/16 13:36:30;;;;;;;12.15;5.60;;;;;;;;;;1444213;98;20985;-89
2022/08/16 13:38:57;;;;;;;12.45;5.45;;;;;;;;;;1461464;98;21234;-88
2022/08/16 13:41:22;;;;;;;17.75;5.45;;;;;;;;;;1461765;98;21033;-86
2022/08/16 13:43:52;;;;;;;14.45;4.97;;;;;;;;;;1461257;98;20996;-87
2022/08/16 13:46:17;;;;;;;16.55;5.37;;;;;;;;;;1460733;98;21654;-86
2022/08/16 13:48:43;;;;;;;15.85;5.83;;;;;;;;;;1461752;98;20961;-87
2022/08/16 13:51:09;;;;;;;16.35;5.65;;;;;;;;;;1460053;98;21229;-86
2022/08/16 13:53:35;;;;;;;17.70;5.80;;;;;;;;;;1479658;96;21117;-89
2022/08/16 13:56:01;;;;;;;13.62;5.53;;;;;;;;;;1480145;96;20906;-85
2022/08/16 13:58:27;;;;;;;14.13;5.80;;;;;;;;;;1480073;96;21668;-89
2022/08/16 14:00:53;;;;;;;20.65;5.75;;;;;;;;;;1491698;93;21153;-86
2022/08/16 14:03:20;;;;;;;15.68;6.00;;;;;;;;;;1531182;93;21139;-86
2022/08/16 14:05:46;;;;;;;17.27;5.67;;;;;;;;;;1530761;93;21063;-84
2022/08/16 14:10:42;;;;;;;18.15;5.28;;;;;;;;;;1572821;89;21058;-85
2022/08/16 14:13:08;;;;;;;18.23;5.30;;;;;;;;;;1592826;88;21324;-86
2022/08/16 14:15:33;;;;;;;17.77;5.85;;;;;;;;;;1600356;88;21918;-88
2022/08/16 14:17:59;;;;;;;19.27;5.70;;;;;;;;;;1619123;88;20868;-88
2022/08/16 14:20:24;;;;;;;16.00;5.60;;;;;;;;;;1597800;88;20978;-86
2022/08/16 14:22:50;;;;;;;19.12;5.78;;;;;;;;;;1595808;88;20871;-86
2022/08/16 14:25:18;;;;;;;12.93;5.47;;;;;;;;;;1587911;90;21157;-87
2022/08/16 14:27:44;;;;;;;15.48;5.15;;;;;;;;;;1587919;90;21743;-86
2022/08/16 14:30:13;;;;;;;13.25;6.03;;;;;;;;;;1588039;90;21025;-86
2022/08/16 14:32:39;;;;;;;16.67;5.40;;;;;;;;;;1591771;88;21151;-86
2022/08/16 14:35:10;;;;;;;12.60;4.75;;;;;;;;;;1605039;88;21150;-88
2022/08/16 14:37:37;;;;;;;16.00;5.47;;;;;;;;;;1542209;91;21206;-86
2022/08/16 14:40:05;;;;;;;19.62;5.53;;;;;;;;;;1541608;91;21148;-85
2022/08/16 14:42:31;;;;;;;13.25;4.90;;;;;;;;;;1542582;91;21065;-88
2022/08/16 14:44:58;;;;;;;14.87;5.28;;;;;;;;;;1542566;93;21161;-87
2022/08/16 14:47:24;;;;;;;20.12;5.28;;;;;;;;;;1542255;93;21105;-89
2022/08/16 14:49:49;;;;;;;17.87;5.25;;;;;;;;;;1542836;91;20985;-90
2022/08/16 14:52:18;;;;;;;15.95;5.15;;;;;;;;;;1549595;91;21107;-88